sensor_id;sensor_type;location;lat;lon;timestamp;temperature;humidity
19538;DHT22;9914;51.008;4.300;2024-03-08T00:01:18;6.00;99.90
19538;DHT22;9914;51.008;4.300;2024-03-08T00:03:44;6.10;99.90
19538;DHT22;9914;51.008;4.300;2024-03-08T00:06:10;6.00;99.90
19538;DHT22;9914;51.008;4.300;2024-03-08T00:08:35;6.00;99.90
19538;DHT22;9914;51.008;4.300;2024-03-08T00:11:01;5.90;99.90
19538;DHT22;9914;51.008;4.300;2024-03-08T00:13:26;5.80;99.90
19538;DHT22;9914;51.008;4.300;2024-03-08T00:15:54;5.80;99.90
19538;DHT22;9914;51.008;4.300;2024-03-08T00:18:19;5.80;99.90
19538;DHT22;9914;51.008;4.300;2024-03-08T00:20:45;5.90;99.90
19538;DHT22;9914;51.008;4.300;2024-03-08T00:23:10;5.90;99.90
19538;DHT22;9914;51.008;4.300;2024-03-08T00:25:36;5.90;99.90
19538;DHT22;9914;51.008;4.300;2024-03-08T00:28:02;5.90;99.90
19538;DHT22;9914;51.008;4.300;2024-03-08T00:30:30;5.90;99.90
19538;DHT22;9914;51.008;4.300;2024-03-08T00:32:56;5.80;99.90
19538;DHT22;9914;51.008;4.300;2024-03-08T00:35:22;5.80;99.90
19538;DHT22;9914;51.008;4.300;2024-03-08T00:37:48;5.80;99.90
19538;DHT22;9914;51.008;4.300;2024-03-08T00:40:14;5.60;99.90
19538;DHT22;9914;51.008;4.300;2024-03-08T00:42:40;5.60;99.90
19538;DHT22;9914;51.008;4.300;2024-03-08T00:45:07;5.60;99.90
19538;DHT22;9914;51.008;4.300;2024-03-08T00:47:33;5.60;99.90
19538;DHT22;9914;51.008;4.300;2024-03-08T00:49:58;5.60;99.90
19538;DHT22;9914;51.008;4.300;2024-03-08T00:52:24;5.70;99.90
19538;DHT22;9914;51.008;4.300;2024-03-08T00:54:50;5.60;99.90
19538;DHT22;9914;51.008;4.300;2024-03-08T00:57:15;5.50;99.90
19538;DHT22;9914;51.008;4.300;2024-03-08T00:59:41;5.50;99.90
19538;DHT22;9914;51.008;4.300;2024-03-08T01:02:07;5.60;99.90
19538;DHT22;9914;51.008;4.300;2024-03-08T01:04:34;5.60;99.90
19538;DHT22;9914;51.008;4.300;2024-03-08T01:07:00;5.40;99.90
19538;DHT22;9914;51.008;4.300;2024-03-08T01:09:27;5.40;99.90
19538;DHT22;9914;51.008;4.300;2024-03-08T01:11:55;5.50;99.90
19538;DHT22;9914;51.008;4.300;2024-03-08T01:14:22;5.40;99.90
19538;DHT22;9914;51.008;4.300;2024-03-08T01:16:48;5.40;99.90
19538;DHT22;9914;51.008;4.300;2024-03-08T01:19:14;5.50;99.90
19538;DHT22;9914;51.008;4.300;2024-03-08T01:21:41;5.50;99.90
19538;DHT22;9914;51.008;4.300;2024-03-08T01:24:07;5.40;99.90
19538;DHT22;9914;51.008;4.300;2024-03-08T01:26:33;5.40;99.90
19538;DHT22;9914;51.008;4.300;2024-03-08T01:29:00;5.40;99.90
19538;DHT22;9914;51.008;4.300;2024-03-08T01:31:27;5.40;99.90
19538;DHT22;9914;51.008;4.300;2024-03-08T01:33:54;5.40;99.90
19538;DHT22;9914;51.008;4.300;2024-03-08T01:36:20;5.40;99.90
19538;DHT22;9914;51.008;4.300;2024-03-08T01:38:45;5.40;99.90
19538;DHT22;9914;51.008;4.300;2024-03-08T01:41:11;5.30;99.90
19538;DHT22;9914;51.008;4.300;2024-03-08T01:43:38;5.30;99.90
19538;DHT22;9914;51.008;4.300;2024-03-08T01:46:04;5.30;99.90
19538;DHT22;9914;51.008;4.300;2024-03-08T01:48:31;5.40;99.90
19538;DHT22;9914;51.008;4.300;2024-03-08T01:50:57;5.40;99.90
19538;DHT22;9914;51.008;4.300;2024-03-08T01:53:24;5.30;99.90
19538;DHT22;9914;51.008;4.300;2024-03-08T01:55:54;5.20;99.90
19538;DHT22;9914;51.008;4.300;2024-03-08T01:58:22;5.20;99.90
19538;DHT22;9914;51.008;4.300;2024-03-08T02:00:48;5.20;99.90
19538;DHT22;9914;51.008;4.300;2024-03-08T02:03:15;5.30;99.90
19538;DHT22;9914;51.008;4.300;2024-03-08T02:05:42;5.30;99.90
19538;DHT22;9914;51.008;4.300;2024-03-08T02:08:08;5.20;99.90
19538;DHT22;9914;51.008;4.300;2024-03-08T02:10:38;5.20;99.90
19538;DHT22;9914;51.008;4.300;2024-03-08T02:13:04;5.20;99.90
19538;DHT22;9914;51.008;4.300;2024-03-08T02:15:53;5.20;99.90
19538;DHT22;9914;51.008;4.300;2024-03-08T02:18:19;5.20;99.90
19538;DHT22;9914;51.008;4.300;2024-03-08T02:20:53;5.20;99.90
19538;DHT22;9914;51.008;4.300;2024-03-08T02:23:19;5.30;99.90
19538;DHT22;9914;51.008;4.300;2024-03-08T02:25:46;5.10;99.90
19538;DHT22;9914;51.008;4.300;2024-03-08T02:28:12;5.10;99.90
19538;DHT22;9914;51.008;4.300;2024-03-08T02:30:38;5.10;99.90
19538;DHT22;9914;51.008;4.300;2024-03-08T02:33:05;5.00;99.90
19538;DHT22;9914;51.008;4.300;2024-03-08T02:35:31;5.00;99.90
19538;DHT22;9914;51.008;4.300;2024-03-08T02:37:57;5.00;99.90
19538;DHT22;9914;51.008;4.300;2024-03-08T02:40:22;5.00;99.90
19538;DHT22;9914;51.008;4.300;2024-03-08T02:42:48;4.90;99.90
19538;DHT22;9914;51.008;4.300;2024-03-08T02:45:14;4.90;99.90
19538;DHT22;9914;51.008;4.300;2024-03-08T02:47:39;5.00;99.90
19538;DHT22;9914;51.008;4.300;2024-03-08T02:50:06;4.90;99.90
19538;DHT22;9914;51.008;4.300;2024-03-08T02:52:34;4.80;99.90
19538;DHT22;9914;51.008;4.300;2024-03-08T02:55:01;4.80;99.90
19538;DHT22;9914;51.008;4.300;2024-03-08T02:57:27;4.80;99.90
19538;DHT22;9914;51.008;4.300;2024-03-08T02:59:54;4.80;99.90
19538;DHT22;9914;51.008;4.300;2024-03-08T03:02:19;4.70;99.90
19538;DHT22;9914;51.008;4.300;2024-03-08T03:04:45;4.80;99.90
19538;DHT22;9914;51.008;4.300;2024-03-08T03:07:11;4.90;99.90
19538;DHT22;9914;51.008;4.300;2024-03-08T03:09:36;4.80;99.90
19538;DHT22;9914;51.008;4.300;2024-03-08T03:12:02;4.80;99.90
19538;DHT22;9914;51.008;4.300;2024-03-08T03:14:28;4.80;99.90
19538;DHT22;9914;51.008;4.300;2024-03-08T03:16:54;4.70;99.90
19538;DHT22;9914;51.008;4.300;2024-03-08T03:19:20;4.70;99.90
19538;DHT22;9914;51.008;4.300;2024-03-08T03:21:47;4.60;99.90
19538;DHT22;9914;51.008;4.300;2024-03-08T03:24:12;4.70;99.90
19538;DHT22;9914;51.008;4.300;2024-03-08T03:26:42;4.60;99.90
19538;DHT22;9914;51.008;4.300;2024-03-08T03:29:10;4.50;99.90
19538;DHT22;9914;51.008;4.300;2024-03-08T03:31:36;4.40;99.90
19538;DHT22;9914;51.008;4.300;2024-03-08T03:34:02;4.50;99.90
19538;DHT22;9914;51.008;4.300;2024-03-08T03:36:32;4.50;99.90
19538;DHT22;9914;51.008;4.300;2024-03-08T03:38:58;4.50;99.90
19538;DHT22;9914;51.008;4.300;2024-03-08T03:41:38;4.50;99.90
19538;DHT22;9914;51.008;4.300;2024-03-08T03:44:04;4.40;99.90
19538;DHT22;9914;51.008;4.300;2024-03-08T03:46:32;4.40;99.90
19538;DHT22;9914;51.008;4.300;2024-03-08T03:48:58;4.40;99.90
19538;DHT22;9914;51.008;4.300;2024-03-08T03:51:24;4.50;99.90
19538;DHT22;9914;51.008;4.300;2024-03-08T03:53:50;4.40;99.90
19538;DHT22;9914;51.008;4.300;2024-03-08T03:56:16;4.40;99.90
19538;DHT22;9914;51.008;4.300;2024-03-08T03:58:41;4.30;99.90
19538;DHT22;9914;51.008;4.300;2024-03-08T04:01:08;4.30;99.90
19538;DHT22;9914;51.008;4.300;2024-03-08T04:03:35;4.20;99.90
19538;DHT22;9914;51.008;4.300;2024-03-08T04:06:00;4.20;99.90
19538;DHT22;9914;51.008;4.300;2024-03-08T04:08:27;4.10;99.90
19538;DHT22;9914;51.008;4.300;2024-03-08T04:10:53;4.20;99.90
19538;DHT22;9914;51.008;4.300;2024-03-08T04:13:18;4.30;99.90
19538;DHT22;9914;51.008;4.300;2024-03-08T04:15:45;4.30;99.90
19538;DHT22;9914;51.008;4.300;2024-03-08T04:18:13;4.30;99.90
19538;DHT22;9914;51.008;4.300;2024-03-08T04:20:39;4.20;99.90
19538;DHT22;9914;51.008;4.300;2024-03-08T04:23:06;4.10;99.90
19538;DHT22;9914;51.008;4.300;2024-03-08T04:25:31;4.20;99.90
19538;DHT22;9914;51.008;4.300;2024-03-08T04:27:57;4.10;99.90
19538;DHT22;9914;51.008;4.300;2024-03-08T04:30:23;4.10;99.90
19538;DHT22;9914;51.008;4.300;2024-03-08T04:32:49;4.10;99.90
19538;DHT22;9914;51.008;4.300;2024-03-08T04:35:15;4.20;99.90
19538;DHT22;9914;51.008;4.300;2024-03-08T04:37:41;4.10;99.90
19538;DHT22;9914;51.008;4.300;2024-03-08T04:40:07;4.20;99.90
19538;DHT22;9914;51.008;4.300;2024-03-08T04:42:33;4.10;99.90
19538;DHT22;9914;51.008;4.300;2024-03-08T04:44:59;4.10;99.90
19538;DHT22;9914;51.008;4.300;2024-03-08T04:47:25;4.10;99.90
19538;DHT22;9914;51.008;4.300;2024-03-08T04:49:50;4.10;99.90
19538;DHT22;9914;51.008;4.300;2024-03-08T04:52:16;4.00;99.90
19538;DHT22;9914;51.008;4.300;2024-03-08T04:54:43;4.00;99.90
19538;DHT22;9914;51.008;4.300;2024-03-08T04:57:10;4.00;99.90
19538;DHT22;9914;51.008;4.300;2024-03-08T04:59:36;3.90;99.90
19538;DHT22;9914;51.008;4.300;2024-03-08T05:02:02;4.00;99.90
19538;DHT22;9914;51.008;4.300;2024-03-08T05:04:28;4.00;99.90
19538;DHT22;9914;51.008;4.300;2024-03-08T05:06:54;4.10;99.90
19538;DHT22;9914;51.008;4.300;2024-03-08T05:09:20;4.10;99.90
19538;DHT22;9914;51.008;4.300;2024-03-08T05:11:46;4.10;99.90
19538;DHT22;9914;51.008;4.300;2024-03-08T05:14:13;4.00;99.90
19538;DHT22;9914;51.008;4.300;2024-03-08T05:16:47;4.00;99.90
19538;DHT22;9914;51.008;4.300;2024-03-08T05:19:20;3.90;99.90
19538;DHT22;9914;51.008;4.300;2024-03-08T05:21:47;3.90;99.90
19538;DHT22;9914;51.008;4.300;2024-03-08T05:24:13;3.90;99.90
19538;DHT22;9914;51.008;4.300;2024-03-08T05:26:40;3.80;99.90
19538;DHT22;9914;51.008;4.300;2024-03-08T05:29:07;3.90;99.90
19538;DHT22;9914;51.008;4.300;2024-03-08T05:31:48;3.80;99.90
19538;DHT22;9914;51.008;4.300;2024-03-08T05:34:14;3.90;99.90
19538;DHT22;9914;51.008;4.300;2024-03-08T05:36:41;3.90;99.90
19538;DHT22;9914;51.008;4.300;2024-03-08T05:39:10;4.00;99.90
19538;DHT22;9914;51.008;4.300;2024-03-08T05:41:38;3.90;99.90
19538;DHT22;9914;51.008;4.300;2024-03-08T05:44:04;3.90;99.90
19538;DHT22;9914;51.008;4.300;2024-03-08T05:46:30;3.90;99.90
19538;DHT22;9914;51.008;4.300;2024-03-08T05:48:56;3.80;99.90
19538;DHT22;9914;51.008;4.300;2024-03-08T05:51:23;3.80;99.90
19538;DHT22;9914;51.008;4.300;2024-03-08T05:53:49;3.80;99.90
19538;DHT22;9914;51.008;4.300;2024-03-08T05:56:15;3.70;99.90
19538;DHT22;9914;51.008;4.300;2024-03-08T05:58:41;3.70;99.90
19538;DHT22;9914;51.008;4.300;2024-03-08T06:01:06;3.60;99.90
19538;DHT22;9914;51.008;4.300;2024-03-08T06:03:34;3.70;99.90
19538;DHT22;9914;51.008;4.300;2024-03-08T06:05:59;3.80;99.90
19538;DHT22;9914;51.008;4.300;2024-03-08T06:08:25;3.70;99.90
19538;DHT22;9914;51.008;4.300;2024-03-08T06:10:55;3.80;99.90
19538;DHT22;9914;51.008;4.300;2024-03-08T06:13:21;3.80;99.90
19538;DHT22;9914;51.008;4.300;2024-03-08T06:15:47;3.80;99.90
19538;DHT22;9914;51.008;4.300;2024-03-08T06:18:12;3.80;99.90
19538;DHT22;9914;51.008;4.300;2024-03-08T06:20:38;3.70;99.90
19538;DHT22;9914;51.008;4.300;2024-03-08T06:23:04;3.70;99.90
19538;DHT22;9914;51.008;4.300;2024-03-08T06:25:30;3.70;99.90
19538;DHT22;9914;51.008;4.300;2024-03-08T06:27:56;3.70;99.90
19538;DHT22;9914;51.008;4.300;2024-03-08T06:30:22;3.70;99.90
19538;DHT22;9914;51.008;4.300;2024-03-08T06:32:48;3.70;99.90
19538;DHT22;9914;51.008;4.300;2024-03-08T06:35:13;3.80;99.90
19538;DHT22;9914;51.008;4.300;2024-03-08T06:37:41;3.80;99.90
19538;DHT22;9914;51.008;4.300;2024-03-08T06:40:10;3.80;99.90
19538;DHT22;9914;51.008;4.300;2024-03-08T06:42:39;3.90;99.90
19538;DHT22;9914;51.008;4.300;2024-03-08T06:45:05;3.80;99.90
19538;DHT22;9914;51.008;4.300;2024-03-08T06:47:32;3.90;99.90
19538;DHT22;9914;51.008;4.300;2024-03-08T06:49:58;4.00;99.90
19538;DHT22;9914;51.008;4.300;2024-03-08T06:52:24;4.00;99.90
19538;DHT22;9914;51.008;4.300;2024-03-08T06:54:50;4.00;99.90
19538;DHT22;9914;51.008;4.300;2024-03-08T06:57:18;4.00;99.90
19538;DHT22;9914;51.008;4.300;2024-03-08T06:59:43;4.00;99.90
19538;DHT22;9914;51.008;4.300;2024-03-08T07:02:10;4.00;99.90
19538;DHT22;9914;51.008;4.300;2024-03-08T07:04:35;4.00;99.90
19538;DHT22;9914;51.008;4.300;2024-03-08T07:07:06;4.00;99.90
19538;DHT22;9914;51.008;4.300;2024-03-08T07:09:36;4.10;99.90
19538;DHT22;9914;51.008;4.300;2024-03-08T07:12:02;4.10;99.90
19538;DHT22;9914;51.008;4.300;2024-03-08T07:14:28;4.10;99.90
19538;DHT22;9914;51.008;4.300;2024-03-08T07:16:54;4.20;99.90
19538;DHT22;9914;51.008;4.300;2024-03-08T07:19:19;4.20;99.90
19538;DHT22;9914;51.008;4.300;2024-03-08T07:21:47;4.20;99.90
19538;DHT22;9914;51.008;4.300;2024-03-08T07:24:13;4.30;99.90
19538;DHT22;9914;51.008;4.300;2024-03-08T07:26:57;4.40;99.90
19538;DHT22;9914;51.008;4.300;2024-03-08T07:29:23;4.30;99.90
19538;DHT22;9914;51.008;4.300;2024-03-08T07:31:49;4.30;99.90
19538;DHT22;9914;51.008;4.300;2024-03-08T07:34:27;4.40;99.90
19538;DHT22;9914;51.008;4.300;2024-03-08T07:36:55;4.40;99.90
19538;DHT22;9914;51.008;4.300;2024-03-08T07:39:22;4.40;99.90
19538;DHT22;9914;51.008;4.300;2024-03-08T07:41:49;4.50;99.90
19538;DHT22;9914;51.008;4.300;2024-03-08T07:44:18;4.60;99.90
19538;DHT22;9914;51.008;4.300;2024-03-08T07:46:44;4.60;99.90
19538;DHT22;9914;51.008;4.300;2024-03-08T07:49:09;4.70;99.90
19538;DHT22;9914;51.008;4.300;2024-03-08T07:51:37;4.80;99.90
19538;DHT22;9914;51.008;4.300;2024-03-08T07:54:04;4.80;99.90
19538;DHT22;9914;51.008;4.300;2024-03-08T07:56:30;4.90;99.90
19538;DHT22;9914;51.008;4.300;2024-03-08T07:58:56;5.00;99.90
19538;DHT22;9914;51.008;4.300;2024-03-08T08:01:22;5.10;99.90
19538;DHT22;9914;51.008;4.300;2024-03-08T08:03:48;5.10;99.90
19538;DHT22;9914;51.008;4.300;2024-03-08T08:06:16;5.20;99.90
19538;DHT22;9914;51.008;4.300;2024-03-08T08:08:42;5.20;99.90
19538;DHT22;9914;51.008;4.300;2024-03-08T08:11:08;5.20;99.90
19538;DHT22;9914;51.008;4.300;2024-03-08T08:13:35;5.30;99.90
19538;DHT22;9914;51.008;4.300;2024-03-08T08:16:02;5.30;99.90
19538;DHT22;9914;51.008;4.300;2024-03-08T08:18:28;5.40;99.90
19538;DHT22;9914;51.008;4.300;2024-03-08T08:20:55;5.40;99.90
19538;DHT22;9914;51.008;4.300;2024-03-08T08:23:21;5.50;99.90
19538;DHT22;9914;51.008;4.300;2024-03-08T08:25:47;5.50;99.90
19538;DHT22;9914;51.008;4.300;2024-03-08T08:28:16;5.60;99.90
19538;DHT22;9914;51.008;4.300;2024-03-08T08:30:43;5.80;99.90
19538;DHT22;9914;51.008;4.300;2024-03-08T08:33:09;6.00;99.90
19538;DHT22;9914;51.008;4.300;2024-03-08T08:35:36;6.10;99.90
19538;DHT22;9914;51.008;4.300;2024-03-08T08:38:03;6.20;99.90
19538;DHT22;9914;51.008;4.300;2024-03-08T08:40:29;6.30;99.90
19538;DHT22;9914;51.008;4.300;2024-03-08T08:43:00;6.30;99.90
19538;DHT22;9914;51.008;4.300;2024-03-08T08:45:26;6.40;99.90
19538;DHT22;9914;51.008;4.300;2024-03-08T08:47:52;6.50;99.90
19538;DHT22;9914;51.008;4.300;2024-03-08T08:50:18;6.50;99.90
19538;DHT22;9914;51.008;4.300;2024-03-08T08:52:48;6.50;99.90
19538;DHT22;9914;51.008;4.300;2024-03-08T08:55:15;6.50;99.90
19538;DHT22;9914;51.008;4.300;2024-03-08T08:57:41;6.50;99.90
19538;DHT22;9914;51.008;4.300;2024-03-08T09:00:07;6.50;99.90
19538;DHT22;9914;51.008;4.300;2024-03-08T09:02:34;6.70;99.90
19538;DHT22;9914;51.008;4.300;2024-03-08T09:05:00;6.90;99.90
19538;DHT22;9914;51.008;4.300;2024-03-08T09:07:26;7.00;99.90
19538;DHT22;9914;51.008;4.300;2024-03-08T09:09:53;7.00;99.90
19538;DHT22;9914;51.008;4.300;2024-03-08T09:12:23;7.00;99.90
19538;DHT22;9914;51.008;4.300;2024-03-08T09:14:48;7.10;99.90
19538;DHT22;9914;51.008;4.300;2024-03-08T09:17:15;7.10;99.90
19538;DHT22;9914;51.008;4.300;2024-03-08T09:19:46;7.10;99.90
19538;DHT22;9914;51.008;4.300;2024-03-08T09:22:13;7.30;99.90
19538;DHT22;9914;51.008;4.300;2024-03-08T09:24:38;7.50;99.90
19538;DHT22;9914;51.008;4.300;2024-03-08T09:27:04;7.50;99.90
19538;DHT22;9914;51.008;4.300;2024-03-08T09:29:30;7.60;99.90
19538;DHT22;9914;51.008;4.300;2024-03-08T09:31:56;7.70;99.90
19538;DHT22;9914;51.008;4.300;2024-03-08T09:34:22;7.80;99.90
19538;DHT22;9914;51.008;4.300;2024-03-08T09:36:48;7.90;99.90
19538;DHT22;9914;51.008;4.300;2024-03-08T09:39:13;8.10;99.90
19538;DHT22;9914;51.008;4.300;2024-03-08T09:41:48;8.20;99.90
19538;DHT22;9914;51.008;4.300;2024-03-08T09:44:15;8.20;99.90
19538;DHT22;9914;51.008;4.300;2024-03-08T09:46:42;8.10;99.90
19538;DHT22;9914;51.008;4.300;2024-03-08T09:49:08;8.20;99.90
19538;DHT22;9914;51.008;4.300;2024-03-08T09:51:35;8.40;99.90
19538;DHT22;9914;51.008;4.300;2024-03-08T09:54:02;8.50;99.90
19538;DHT22;9914;51.008;4.300;2024-03-08T09:56:32;8.70;99.90
19538;DHT22;9914;51.008;4.300;2024-03-08T09:59:01;8.80;99.90
19538;DHT22;9914;51.008;4.300;2024-03-08T10:01:45;8.80;99.90
19538;DHT22;9914;51.008;4.300;2024-03-08T10:04:11;9.10;99.90
19538;DHT22;9914;51.008;4.300;2024-03-08T10:06:39;9.10;99.90
19538;DHT22;9914;51.008;4.300;2024-03-08T10:09:05;9.30;99.90
19538;DHT22;9914;51.008;4.300;2024-03-08T10:11:33;9.40;99.90
19538;DHT22;9914;51.008;4.300;2024-03-08T10:14:00;9.50;99.90
19538;DHT22;9914;51.008;4.300;2024-03-08T10:16:27;9.60;99.90
19538;DHT22;9914;51.008;4.300;2024-03-08T10:18:54;9.70;99.90
19538;DHT22;9914;51.008;4.300;2024-03-08T10:21:21;9.80;99.90
19538;DHT22;9914;51.008;4.300;2024-03-08T10:23:48;9.80;99.90
19538;DHT22;9914;51.008;4.300;2024-03-08T10:26:17;9.80;99.90
19538;DHT22;9914;51.008;4.300;2024-03-08T10:28:45;9.80;99.90
19538;DHT22;9914;51.008;4.300;2024-03-08T10:31:16;10.00;99.90
19538;DHT22;9914;51.008;4.300;2024-03-08T10:33:43;10.00;99.90
19538;DHT22;9914;51.008;4.300;2024-03-08T10:36:11;10.10;99.90
19538;DHT22;9914;51.008;4.300;2024-03-08T10:38:41;10.10;99.90
19538;DHT22;9914;51.008;4.300;2024-03-08T10:41:08;10.10;99.90
19538;DHT22;9914;51.008;4.300;2024-03-08T10:49:31;10.40;99.90
19538;DHT22;9914;51.008;4.300;2024-03-08T10:52:02;10.40;99.90
19538;DHT22;9914;51.008;4.300;2024-03-08T10:54:30;10.50;99.90
19538;DHT22;9914;51.008;4.300;2024-03-08T10:56:57;10.50;99.90
19538;DHT22;9914;51.008;4.300;2024-03-08T10:59:25;10.50;99.90
19538;DHT22;9914;51.008;4.300;2024-03-08T11:01:53;10.40;99.90
19538;DHT22;9914;51.008;4.300;2024-03-08T11:04:18;10.50;99.90
19538;DHT22;9914;51.008;4.300;2024-03-08T11:06:48;10.60;99.90
19538;DHT22;9914;51.008;4.300;2024-03-08T11:09:28;10.70;99.90
19538;DHT22;9914;51.008;4.300;2024-03-08T11:12:22;10.70;99.90
19538;DHT22;9914;51.008;4.300;2024-03-08T11:15:10;10.80;99.90
19538;DHT22;9914;51.008;4.300;2024-03-08T11:20:15;11.20;99.90
19538;DHT22;9914;51.008;4.300;2024-03-08T11:22:47;11.40;99.90
19538;DHT22;9914;51.008;4.300;2024-03-08T11:25:36;11.50;99.90
19538;DHT22;9914;51.008;4.300;2024-03-08T11:30:43;11.60;99.90
19538;DHT22;9914;51.008;4.300;2024-03-08T11:33:13;11.60;99.90
19538;DHT22;9914;51.008;4.300;2024-03-08T11:35:39;11.60;99.90
19538;DHT22;9914;51.008;4.300;2024-03-08T11:38:08;11.70;99.90
19538;DHT22;9914;51.008;4.300;2024-03-08T11:40:35;11.90;99.90
19538;DHT22;9914;51.008;4.300;2024-03-08T11:43:01;12.00;99.90
19538;DHT22;9914;51.008;4.300;2024-03-08T11:45:34;11.80;99.90
19538;DHT22;9914;51.008;4.300;2024-03-08T11:48:04;11.80;99.90
19538;DHT22;9914;51.008;4.300;2024-03-08T11:50:30;12.00;99.90
19538;DHT22;9914;51.008;4.300;2024-03-08T11:53:04;12.10;99.90
19538;DHT22;9914;51.008;4.300;2024-03-08T11:55:31;12.10;99.90
19538;DHT22;9914;51.008;4.300;2024-03-08T11:58:04;12.00;99.90
19538;DHT22;9914;51.008;4.300;2024-03-08T12:00:31;12.10;99.90
19538;DHT22;9914;51.008;4.300;2024-03-08T12:03:07;12.00;99.90
19538;DHT22;9914;51.008;4.300;2024-03-08T12:05:35;12.10;99.90
19538;DHT22;9914;51.008;4.300;2024-03-08T12:08:02;12.10;99.90
19538;DHT22;9914;51.008;4.300;2024-03-08T12:10:28;12.20;99.90
19538;DHT22;9914;51.008;4.300;2024-03-08T12:12:56;12.30;99.90
19538;DHT22;9914;51.008;4.300;2024-03-08T12:15:25;12.10;99.90
19538;DHT22;9914;51.008;4.300;2024-03-08T12:17:52;12.30;99.90
19538;DHT22;9914;51.008;4.300;2024-03-08T12:20:20;12.20;99.90
19538;DHT22;9914;51.008;4.300;2024-03-08T12:22:49;12.10;99.90
19538;DHT22;9914;51.008;4.300;2024-03-08T12:25:17;12.10;99.90
19538;DHT22;9914;51.008;4.300;2024-03-08T12:27:43;12.30;99.90
19538;DHT22;9914;51.008;4.300;2024-03-08T12:30:35;12.40;99.90
19538;DHT22;9914;51.008;4.300;2024-03-08T12:33:03;12.40;99.90
19538;DHT22;9914;51.008;4.300;2024-03-08T12:35:30;12.60;99.90
19538;DHT22;9914;51.008;4.300;2024-03-08T12:37:59;12.60;99.90
19538;DHT22;9914;51.008;4.300;2024-03-08T12:40:34;12.90;99.90
19538;DHT22;9914;51.008;4.300;2024-03-08T12:43:02;13.10;99.90
19538;DHT22;9914;51.008;4.300;2024-03-08T12:45:28;13.30;99.90
19538;DHT22;9914;51.008;4.300;2024-03-08T12:47:54;13.40;99.90
19538;DHT22;9914;51.008;4.300;2024-03-08T12:50:21;13.10;99.90
19538;DHT22;9914;51.008;4.300;2024-03-08T12:52:47;13.30;99.90
19538;DHT22;9914;51.008;4.300;2024-03-08T12:55:18;13.20;99.90
19538;DHT22;9914;51.008;4.300;2024-03-08T12:57:44;13.30;99.90
19538;DHT22;9914;51.008;4.300;2024-03-08T13:00:10;13.20;99.90
19538;DHT22;9914;51.008;4.300;2024-03-08T13:02:45;13.10;99.90
19538;DHT22;9914;51.008;4.300;2024-03-08T13:05:11;13.00;99.90
19538;DHT22;9914;51.008;4.300;2024-03-08T13:07:40;12.90;99.90
19538;DHT22;9914;51.008;4.300;2024-03-08T13:10:06;13.10;99.90
19538;DHT22;9914;51.008;4.300;2024-03-08T13:12:32;13.10;99.90
19538;DHT22;9914;51.008;4.300;2024-03-08T13:15:00;13.20;99.90
19538;DHT22;9914;51.008;4.300;2024-03-08T13:17:25;12.90;99.90
19538;DHT22;9914;51.008;4.300;2024-03-08T13:19:52;13.00;99.90
19538;DHT22;9914;51.008;4.300;2024-03-08T13:22:21;13.00;99.90
19538;DHT22;9914;51.008;4.300;2024-03-08T13:24:48;13.30;99.90
19538;DHT22;9914;51.008;4.300;2024-03-08T13:27:15;13.30;99.90
19538;DHT22;9914;51.008;4.300;2024-03-08T13:29:48;13.50;99.90
19538;DHT22;9914;51.008;4.300;2024-03-08T13:32:15;13.60;99.90
19538;DHT22;9914;51.008;4.300;2024-03-08T13:34:42;13.50;99.90
19538;DHT22;9914;51.008;4.300;2024-03-08T13:37:08;13.40;99.90
19538;DHT22;9914;51.008;4.300;2024-03-08T13:39:36;13.50;99.90
19538;DHT22;9914;51.008;4.300;2024-03-08T13:42:13;13.50;99.90
19538;DHT22;9914;51.008;4.300;2024-03-08T13:44:47;13.40;99.90
19538;DHT22;9914;51.008;4.300;2024-03-08T13:47:16;13.20;99.90
19538;DHT22;9914;51.008;4.300;2024-03-08T13:49:45;13.10;99.90
19538;DHT22;9914;51.008;4.300;2024-03-08T13:52:11;13.10;99.90
19538;DHT22;9914;51.008;4.300;2024-03-08T13:54:41;13.30;99.90
19538;DHT22;9914;51.008;4.300;2024-03-08T13:57:08;13.50;99.90
19538;DHT22;9914;51.008;4.300;2024-03-08T13:59:34;13.60;99.90
19538;DHT22;9914;51.008;4.300;2024-03-08T14:02:01;13.50;99.90
19538;DHT22;9914;51.008;4.300;2024-03-08T14:04:28;13.50;99.90
19538;DHT22;9914;51.008;4.300;2024-03-08T14:06:54;13.40;99.90
19538;DHT22;9914;51.008;4.300;2024-03-08T14:09:25;13.40;99.90
19538;DHT22;9914;51.008;4.300;2024-03-08T14:11:57;13.50;99.90
19538;DHT22;9914;51.008;4.300;2024-03-08T14:14:24;13.30;99.90
19538;DHT22;9914;51.008;4.300;2024-03-08T14:16:50;13.30;99.90
19538;DHT22;9914;51.008;4.300;2024-03-08T14:19:20;13.50;99.90
19538;DHT22;9914;51.008;4.300;2024-03-08T14:21:46;13.50;99.90
19538;DHT22;9914;51.008;4.300;2024-03-08T14:24:16;13.20;99.90
19538;DHT22;9914;51.008;4.300;2024-03-08T14:26:44;13.30;99.90
19538;DHT22;9914;51.008;4.300;2024-03-08T14:29:10;13.40;99.90
19538;DHT22;9914;51.008;4.300;2024-03-08T14:31:36;13.30;99.90
19538;DHT22;9914;51.008;4.300;2024-03-08T14:34:02;13.40;99.90
19538;DHT22;9914;51.008;4.300;2024-03-08T14:36:29;13.40;99.90
19538;DHT22;9914;51.008;4.300;2024-03-08T14:38:55;13.60;99.90
19538;DHT22;9914;51.008;4.300;2024-03-08T14:41:21;13.80;99.90
19538;DHT22;9914;51.008;4.300;2024-03-08T14:43:48;13.90;99.90
19538;DHT22;9914;51.008;4.300;2024-03-08T14:46:14;14.00;99.90
19538;DHT22;9914;51.008;4.300;2024-03-08T14:48:45;13.90;99.90
19538;DHT22;9914;51.008;4.300;2024-03-08T14:51:11;13.80;99.90
19538;DHT22;9914;51.008;4.300;2024-03-08T14:53:40;13.80;99.90
19538;DHT22;9914;51.008;4.300;2024-03-08T14:56:09;13.70;99.90
19538;DHT22;9914;51.008;4.300;2024-03-08T14:58:35;13.80;99.90
19538;DHT22;9914;51.008;4.300;2024-03-08T15:01:01;13.70;99.90
19538;DHT22;9914;51.008;4.300;2024-03-08T15:03:27;13.70;99.90
19538;DHT22;9914;51.008;4.300;2024-03-08T15:05:54;13.80;99.90
19538;DHT22;9914;51.008;4.300;2024-03-08T15:08:21;13.80;99.90
19538;DHT22;9914;51.008;4.300;2024-03-08T15:10:49;13.90;99.90
19538;DHT22;9914;51.008;4.300;2024-03-08T15:13:23;13.70;99.90
19538;DHT22;9914;51.008;4.300;2024-03-08T15:15:59;13.80;99.90
19538;DHT22;9914;51.008;4.300;2024-03-08T15:18:25;13.80;99.90
19538;DHT22;9914;51.008;4.300;2024-03-08T15:20:53;13.70;99.90
19538;DHT22;9914;51.008;4.300;2024-03-08T15:23:20;13.80;99.90
19538;DHT22;9914;51.008;4.300;2024-03-08T15:25:47;13.90;99.90
19538;DHT22;9914;51.008;4.300;2024-03-08T15:28:15;14.00;99.90
19538;DHT22;9914;51.008;4.300;2024-03-08T15:30:43;14.00;99.90
19538;DHT22;9914;51.008;4.300;2024-03-08T15:33:15;14.00;99.90
19538;DHT22;9914;51.008;4.300;2024-03-08T15:35:50;14.00;99.90
19538;DHT22;9914;51.008;4.300;2024-03-08T15:38:23;13.80;99.90
19538;DHT22;9914;51.008;4.300;2024-03-08T15:40:49;13.80;99.90
19538;DHT22;9914;51.008;4.300;2024-03-08T15:43:16;13.80;99.90
19538;DHT22;9914;51.008;4.300;2024-03-08T15:45:45;13.70;99.90
19538;DHT22;9914;51.008;4.300;2024-03-08T15:48:13;13.90;99.90
19538;DHT22;9914;51.008;4.300;2024-03-08T15:50:39;14.50;99.90
19538;DHT22;9914;51.008;4.300;2024-03-08T15:53:05;15.00;99.90
19538;DHT22;9914;51.008;4.300;2024-03-08T15:55:31;15.40;99.90
19538;DHT22;9914;51.008;4.300;2024-03-08T15:57:57;15.10;99.90
19538;DHT22;9914;51.008;4.300;2024-03-08T16:00:26;14.90;99.90
19538;DHT22;9914;51.008;4.300;2024-03-08T16:03:11;15.30;99.90
19538;DHT22;9914;51.008;4.300;2024-03-08T16:05:37;15.30;99.90
19538;DHT22;9914;51.008;4.300;2024-03-08T16:08:07;14.90;99.90
19538;DHT22;9914;51.008;4.300;2024-03-08T16:10:35;14.80;99.90